createdAt,value
2022-11-25T00:01:31.889Z,0.50
2022-11-25T00:04:01.710Z,0.40
2022-11-25T00:06:31.660Z,0.50
2022-11-25T00:09:01.227Z,0.40
2022-11-25T00:11:29.398Z,0.40
2022-11-25T00:13:58.587Z,0.50
2022-11-25T00:16:27.498Z,0.50
2022-11-25T00:18:57.795Z,0.30
2022-11-25T00:21:28.641Z,0.30
2022-11-25T00:23:58.151Z,0.30
2022-11-25T00:26:27.538Z,0.40
2022-11-25T00:28:57.657Z,0.40
2022-11-25T00:31:28.062Z,0.60
2022-11-25T00:33:56.428Z,0.50
2022-11-25T00:36:27.240Z,0.40
2022-11-25T00:38:56.203Z,0.50
2022-11-25T00:41:42.612Z,0.40
2022-11-25T00:44:41.674Z,0.30
2022-11-25T00:47:12.369Z,0.30
2022-11-25T00:49:41.925Z,0.60
2022-11-25T00:52:15.315Z,0.60
2022-11-25T00:54:44.701Z,0.70
2022-11-25T00:57:12.683Z,0.60
2022-11-25T00:59:41.326Z,0.60
2022-11-25T01:02:10.961Z,0.80
2022-11-25T01:04:39.455Z,0.90
2022-11-25T01:07:08.315Z,0.90
2022-11-25T01:09:38.642Z,0.90
2022-11-25T01:12:07.451Z,0.80
2022-11-25T01:14:36.639Z,0.80
2022-11-25T01:17:05.322Z,0.70
2022-11-25T01:19:33.890Z,0.70
2022-11-25T01:22:01.917Z,0.90
2022-11-25T01:24:30.032Z,0.90
2022-11-25T01:26:59.373Z,0.50
2022-11-25T01:29:28.595Z,0.30
2022-11-25T01:31:57.344Z,0.40
2022-11-25T01:34:27.388Z,0.40
2022-11-25T01:36:58.882Z,0.30
2022-11-25T01:39:32.379Z,0.30
2022-11-25T01:42:03.124Z,0.30
2022-11-25T01:44:33.171Z,0.20
2022-11-25T01:47:05.970Z,0.20
2022-11-25T01:49:39.229Z,0.30
2022-11-25T01:52:15.205Z,0.40
2022-11-25T01:54:49.973Z,0.20
2022-11-25T01:57:26.432Z,0.30
2022-11-25T01:59:58.870Z,0.50
2022-11-25T02:02:27.222Z,0.40
2022-11-25T02:04:55.315Z,0.50
2022-11-25T02:07:29.631Z,0.60
2022-11-25T02:09:58.591Z,0.50
2022-11-25T02:12:29.422Z,0.40
2022-11-25T02:15:00.600Z,0.20
2022-11-25T02:17:28.774Z,0.30
2022-11-25T02:20:03.926Z,0.10
2022-11-25T02:22:47.391Z,0.30
2022-11-25T02:25:19.464Z,0.40
2022-11-25T02:27:51.925Z,0.40
2022-11-25T02:30:20.637Z,0.40
2022-11-25T02:32:50.227Z,0.40
2022-11-25T02:35:31.432Z,0.30
2022-11-25T02:38:05.092Z,0.20
2022-11-25T02:40:38.670Z,0.40
2022-11-25T02:43:06.851Z,0.50
2022-11-25T02:45:51.435Z,0.70
2022-11-25T02:48:34.533Z,0.80
2022-11-25T02:51:11.907Z,0.90
2022-11-25T02:53:40.615Z,0.90
2022-11-25T02:56:12.625Z,0.80
2022-11-25T02:58:41.096Z,0.80
2022-11-25T03:01:10.240Z,0.70
2022-11-25T03:03:38.709Z,0.70
2022-11-25T03:06:08.759Z,0.80
2022-11-25T03:08:38.094Z,1.00
2022-11-25T03:11:10.714Z,0.90
2022-11-25T03:13:39.565Z,0.60
2022-11-25T03:16:08.105Z,0.50
2022-11-25T03:18:36.719Z,0.60
2022-11-25T03:21:05.069Z,0.70
2022-11-25T03:23:33.172Z,0.40
2022-11-25T03:26:06.613Z,0.50
2022-11-25T03:28:36.515Z,0.60
2022-11-25T03:31:04.510Z,0.70
2022-11-25T03:33:33.245Z,0.70
2022-11-25T03:36:01.265Z,0.70
2022-11-25T03:38:29.398Z,0.80
2022-11-25T03:40:57.685Z,0.70
2022-11-25T03:43:25.858Z,0.80
2022-11-25T03:45:55.320Z,0.80
2022-11-25T03:48:23.488Z,0.70
2022-11-25T03:50:51.516Z,0.60
2022-11-25T03:53:19.594Z,0.70
2022-11-25T03:55:49.116Z,0.80
2022-11-25T03:58:20.354Z,0.90
2022-11-25T04:00:50.095Z,1.00
2022-11-25T04:03:20.079Z,0.90
2022-11-25T04:05:48.161Z,0.90
2022-11-25T04:08:16.213Z,1.00
2022-11-25T04:10:46.294Z,0.90
2022-11-25T04:13:14.214Z,1.00
2022-11-25T04:15:46.864Z,0.80
2022-11-25T04:18:16.789Z,0.70
2022-11-25T04:20:46.192Z,0.70
2022-11-25T04:23:15.232Z,0.70
2022-11-25T04:25:51.516Z,0.70
2022-11-25T04:28:45.947Z,0.70
2022-11-25T04:31:14.951Z,0.60
2022-11-25T04:33:49.661Z,0.50
2022-11-25T04:36:22.388Z,0.50
2022-11-25T04:38:50.876Z,0.60
2022-11-25T04:41:19.358Z,0.80
2022-11-25T04:43:47.447Z,0.70
2022-11-25T04:46:20.452Z,0.80
2022-11-25T04:48:51.564Z,0.80
2022-11-25T04:51:22.437Z,0.80
2022-11-25T04:53:54.191Z,0.90
2022-11-25T04:56:24.613Z,0.90
2022-11-25T04:59:11.944Z,0.90
2022-11-25T05:01:47.229Z,0.80
2022-11-25T05:04:25.687Z,0.80
2022-11-25T05:06:55.110Z,0.80
2022-11-25T05:09:25.533Z,0.70
2022-11-25T05:12:09.951Z,0.80
2022-11-25T05:14:38.525Z,0.80
2022-11-25T05:17:08.429Z,1.00
2022-11-25T05:19:37.176Z,0.70
2022-11-25T05:22:07.394Z,0.80
2022-11-25T05:24:35.756Z,0.90
2022-11-25T05:27:04.708Z,1.10
2022-11-25T05:29:33.456Z,1.10
2022-11-25T05:32:01.532Z,1.10
2022-11-25T05:34:30.991Z,1.20
2022-11-25T05:37:00.403Z,1.20
2022-11-25T05:39:31.968Z,1.20
2022-11-25T05:42:26.349Z,1.00
2022-11-25T05:44:54.825Z,1.10
2022-11-25T05:47:23.645Z,1.10
2022-11-25T05:49:51.859Z,1.20
2022-11-25T05:52:20.189Z,1.20
2022-11-25T05:54:58.896Z,1.20
2022-11-25T05:57:28.769Z,1.20
2022-11-25T06:00:16.666Z,1.20
2022-11-25T06:02:53.719Z,1.10
2022-11-25T06:05:25.341Z,1.20
2022-11-25T06:07:53.909Z,1.00
2022-11-25T06:10:24.890Z,1.10
2022-11-25T06:12:54.313Z,1.30
2022-11-25T06:15:22.556Z,1.40
2022-11-25T06:17:53.194Z,1.40
2022-11-25T06:20:25.532Z,1.30
2022-11-25T06:22:53.751Z,1.20
2022-11-25T06:25:29.037Z,1.30
2022-11-25T06:28:12.441Z,1.10
2022-11-25T06:30:42.671Z,1.00
2022-11-25T06:33:31.045Z,1.10
2022-11-25T06:36:04.929Z,1.00
2022-11-25T06:38:32.965Z,1.10
2022-11-25T06:41:03.238Z,1.00
2022-11-25T06:43:32.342Z,0.90
2022-11-25T06:46:04.519Z,1.10
2022-11-25T06:48:33.114Z,1.20
2022-11-25T06:51:02.621Z,1.30
2022-11-25T06:53:31.352Z,1.10
2022-11-25T06:56:13.635Z,0.90
2022-11-25T06:58:42.705Z,1.00
2022-11-25T07:01:15.229Z,0.70
2022-11-25T07:03:43.993Z,0.90
2022-11-25T07:06:13.569Z,1.30
2022-11-25T07:08:41.742Z,1.50
2022-11-25T07:11:15.344Z,1.20
2022-11-25T07:13:43.676Z,1.50
2022-11-25T07:16:14.961Z,1.60
2022-11-25T07:18:43.613Z,1.50
2022-11-25T07:21:13.874Z,1.40
2022-11-25T07:23:43.202Z,1.50
2022-11-25T07:26:15.249Z,1.80
2022-11-25T07:28:43.878Z,1.90
2022-11-25T07:31:27.547Z,1.80
2022-11-25T07:33:58.219Z,1.90
2022-11-25T07:36:26.875Z,2.00
2022-11-25T07:38:55.064Z,2.10
2022-11-25T07:41:26.263Z,2.10
2022-11-25T07:43:56.343Z,2.30
2022-11-25T07:46:27.765Z,2.40
2022-11-25T07:48:57.405Z,2.60
2022-11-25T07:51:27.661Z,2.50
2022-11-25T07:53:57.227Z,2.50
2022-11-25T07:56:26.806Z,2.10
2022-11-25T07:58:55.656Z,2.20
2022-11-25T08:01:24.072Z,2.30
2022-11-25T08:03:52.941Z,2.30
2022-11-25T08:06:22.830Z,2.10
2022-11-25T08:08:52.894Z,1.90
2022-11-25T08:11:23.407Z,2.10
2022-11-25T08:13:53.159Z,2.00
2022-11-25T08:16:23.777Z,2.10
2022-11-25T08:18:52.053Z,2.10
2022-11-25T08:21:20.469Z,2.20
2022-11-25T08:23:49.009Z,2.20
2022-11-25T08:26:20.587Z,2.20
2022-11-25T08:28:48.885Z,2.10
2022-11-25T08:31:21.867Z,1.90
2022-11-25T08:33:50.901Z,2.10
2022-11-25T08:36:19.350Z,2.10
2022-11-25T08:38:48.950Z,2.30
2022-11-25T08:41:19.394Z,2.00
2022-11-25T08:43:47.607Z,2.10
2022-11-25T08:46:19.605Z,2.40
2022-11-25T08:48:47.831Z,2.30
2022-11-25T08:51:18.738Z,2.40
2022-11-25T08:53:48.027Z,2.60
2022-11-25T08:56:17.180Z,2.60
2022-11-25T08:58:48.975Z,4.10
2022-11-25T09:01:19.396Z,2.90
2022-11-25T09:03:50.010Z,3.00
2022-11-25T09:06:19.264Z,3.20
2022-11-25T09:08:48.022Z,3.30
2022-11-25T09:11:16.793Z,3.50
2022-11-25T09:13:44.937Z,3.40
2022-11-25T09:16:13.170Z,3.30
2022-11-25T09:18:42.958Z,3.20
2022-11-25T09:21:13.074Z,3.20
2022-11-25T09:23:41.399Z,3.00
2022-11-25T09:26:16.834Z,3.20
2022-11-25T09:28:44.934Z,3.10
2022-11-25T09:31:14.618Z,3.00
2022-11-25T09:33:44.655Z,2.90
2022-11-25T09:36:13.874Z,3.00
2022-11-25T09:38:44.460Z,2.90
2022-11-25T09:41:40.248Z,2.80
2022-11-25T09:44:35.624Z,3.00
2022-11-25T09:47:08.982Z,3.00
2022-11-25T09:49:51.595Z,3.20
2022-11-25T09:52:31.351Z,3.10
2022-11-25T09:55:05.703Z,2.80
2022-11-25T09:57:59.472Z,2.90
2022-11-25T10:00:33.958Z,2.90
2022-11-25T10:03:08.052Z,2.80
2022-11-25T10:05:42.809Z,2.90
2022-11-25T10:08:14.088Z,2.90
2022-11-25T10:10:45.736Z,2.90
2022-11-25T10:13:19.067Z,2.70
2022-11-25T10:15:50.650Z,2.60
2022-11-25T10:18:25.114Z,2.70
2022-11-25T10:20:55.611Z,2.80
2022-11-25T10:23:28.739Z,2.80
2022-11-25T10:26:00.156Z,2.80
2022-11-25T10:28:32.514Z,2.80
2022-11-25T10:31:05.924Z,2.70
2022-11-25T10:33:39.273Z,2.90
2022-11-25T10:36:16.580Z,3.00
2022-11-25T10:38:51.357Z,2.80
2022-11-25T10:41:24.590Z,3.00
2022-11-25T10:43:52.773Z,3.00
2022-11-25T10:46:57.156Z,3.10
2022-11-25T10:49:30.319Z,3.10
2022-11-25T10:51:59.910Z,3.10
2022-11-25T10:54:29.979Z,3.10
2022-11-25T10:57:00.495Z,3.20
2022-11-25T10:59:31.211Z,3.30
2022-11-25T11:02:19.523Z,3.20
2022-11-25T11:04:54.553Z,3.20
2022-11-25T11:07:25.000Z,3.30
2022-11-25T11:09:53.293Z,3.30
2022-11-25T11:12:23.679Z,3.20
2022-11-25T11:14:52.651Z,3.40
2022-11-25T11:17:41.522Z,3.30
2022-11-25T11:20:18.837Z,3.30
2022-11-25T11:22:51.397Z,3.40
2022-11-25T11:25:32.099Z,3.30
2022-11-25T11:28:00.617Z,3.40
2022-11-25T11:30:30.740Z,3.70
2022-11-25T11:33:02.742Z,3.80
2022-11-25T11:35:48.848Z,3.70
2022-11-25T11:38:34.857Z,3.70
2022-11-25T11:41:17.080Z,3.80
2022-11-25T11:43:57.487Z,3.70
2022-11-25T11:46:42.290Z,3.80
2022-11-25T11:49:40.340Z,3.80
2022-11-25T11:52:17.203Z,3.70
2022-11-25T11:54:51.525Z,3.60
2022-11-25T11:57:30.693Z,3.40
2022-11-25T12:00:05.535Z,3.40
2022-11-25T12:02:55.522Z,3.50
2022-11-25T12:05:27.234Z,3.50
2022-11-25T12:08:07.622Z,3.50
2022-11-25T12:10:41.110Z,3.30
2022-11-25T12:13:19.194Z,3.20
2022-11-25T12:15:52.901Z,3.20
2022-11-25T12:18:33.426Z,3.40
2022-11-25T12:21:05.282Z,3.50
2022-11-25T12:23:44.018Z,3.50
2022-11-25T12:26:20.698Z,3.60
2022-11-25T12:28:54.418Z,3.60
2022-11-25T12:31:27.724Z,3.50
2022-11-25T12:34:03.361Z,3.40
2022-11-25T12:36:35.642Z,3.60
2022-11-25T12:39:06.304Z,3.40
2022-11-25T12:41:42.876Z,3.40
2022-11-25T12:44:17.881Z,3.40
2022-11-25T12:46:48.259Z,3.40
2022-11-25T12:49:21.005Z,4.00
2022-11-25T12:52:16.970Z,3.50
2022-11-25T12:55:00.116Z,3.40
2022-11-25T12:57:57.510Z,3.40
2022-11-25T13:00:41.503Z,3.20
2022-11-25T13:03:47.417Z,3.10
2022-11-25T13:06:41.971Z,3.10
2022-11-25T13:09:31.153Z,3.30
2022-11-25T13:12:21.908Z,3.30
2022-11-25T13:15:20.063Z,3.00
2022-11-25T13:17:51.014Z,3.30
2022-11-25T13:20:48.618Z,3.30
2022-11-25T13:23:32.810Z,3.30
2022-11-25T13:26:50.337Z,3.30
2022-11-25T13:30:04.440Z,3.10
2022-11-25T13:32:43.825Z,3.10
2022-11-25T13:35:37.066Z,3.20
2022-11-25T13:38:38.040Z,3.20
2022-11-25T13:41:24.680Z,3.20
2022-11-25T13:44:01.726Z,2.90
2022-11-25T13:46:38.476Z,3.00
2022-11-25T13:49:25.141Z,3.00
2022-11-25T13:51:55.854Z,3.00
2022-11-25T13:54:32.635Z,3.00
2022-11-25T13:57:18.644Z,3.10
2022-11-25T13:59:52.376Z,3.10
2022-11-25T14:02:49.931Z,3.20
2022-11-25T14:08:24.724Z,3.10
2022-11-25T14:11:01.813Z,3.00
2022-11-25T14:13:52.358Z,3.00
2022-11-25T14:16:49.810Z,2.90
2022-11-25T14:19:53.482Z,2.90
2022-11-25T14:22:42.307Z,3.00
2022-11-25T14:25:22.323Z,2.90
2022-11-25T14:28:03.515Z,3.00
2022-11-25T14:30:33.685Z,3.00
2022-11-25T14:33:06.008Z,2.90
2022-11-25T14:35:44.842Z,2.90
2022-11-25T14:38:17.434Z,2.90
2022-11-25T14:40:55.914Z,3.00
2022-11-25T14:43:26.076Z,3.00
2022-11-25T14:46:13.720Z,3.00
2022-11-25T14:48:41.988Z,2.90
2022-11-25T14:51:13.828Z,2.60
2022-11-25T14:53:48.158Z,2.60
2022-11-25T14:56:25.029Z,2.70
2022-11-25T14:58:55.972Z,2.80
2022-11-25T15:01:25.836Z,3.00
2022-11-25T15:04:03.362Z,2.80
2022-11-25T15:06:35.788Z,2.80
2022-11-25T15:09:04.981Z,2.80
2022-11-25T15:11:36.050Z,2.80
2022-11-25T15:14:06.942Z,2.70
2022-11-25T15:16:39.658Z,2.90
2022-11-25T15:19:15.926Z,2.90
2022-11-25T15:22:15.013Z,2.90
2022-11-25T15:24:42.781Z,2.80
2022-11-25T15:27:17.093Z,2.80
2022-11-25T15:29:47.332Z,2.90
2022-11-25T15:32:19.858Z,2.80
2022-11-25T15:34:49.820Z,2.70
2022-11-25T15:37:18.179Z,2.70
2022-11-25T15:39:46.878Z,2.40
2022-11-25T15:42:21.330Z,3.60
2022-11-25T15:44:53.887Z,2.90
2022-11-25T15:47:25.923Z,3.00
2022-11-25T15:50:01.416Z,2.90
2022-11-25T15:52:32.859Z,3.00
2022-11-25T15:55:04.384Z,2.80
2022-11-25T15:57:36.474Z,2.90
2022-11-25T16:00:20.601Z,2.80
2022-11-25T16:02:54.972Z,2.60
2022-11-25T16:05:33.007Z,2.80
2022-11-25T16:08:26.446Z,2.90
2022-11-25T16:10:57.300Z,2.80
2022-11-25T16:13:33.546Z,2.90
2022-11-25T16:16:11.917Z,2.70
2022-11-25T16:18:44.018Z,2.60
2022-11-25T16:21:15.826Z,2.70
2022-11-25T16:23:48.051Z,2.50
2022-11-25T16:26:19.771Z,2.40
2022-11-25T16:28:58.271Z,2.50
2022-11-25T16:31:26.797Z,2.40
2022-11-25T16:33:57.423Z,2.50
2022-11-25T16:36:25.603Z,2.30
2022-11-25T16:38:55.345Z,2.40
2022-11-25T16:41:26.955Z,2.50
2022-11-25T16:43:58.613Z,2.60
2022-11-25T16:46:29.246Z,2.70
2022-11-25T16:48:57.469Z,2.60
2022-11-25T16:51:25.975Z,2.50
2022-11-25T16:53:54.127Z,2.50
2022-11-25T16:56:25.697Z,2.70
2022-11-25T16:58:54.873Z,2.60
2022-11-25T17:01:26.768Z,2.70
2022-11-25T17:03:55.224Z,2.70
2022-11-25T17:06:25.093Z,2.60
2022-11-25T17:08:53.718Z,2.50
2022-11-25T17:11:25.107Z,2.70
2022-11-25T17:13:54.891Z,2.70
2022-11-25T17:16:27.019Z,2.90
2022-11-25T17:18:57.413Z,2.90
2022-11-25T17:21:28.951Z,2.80
2022-11-25T17:24:02.566Z,2.80
2022-11-25T17:26:38.362Z,2.80
2022-11-25T17:29:09.692Z,2.80
2022-11-25T17:31:40.051Z,2.60
2022-11-25T17:34:08.352Z,2.80
2022-11-25T17:36:36.469Z,3.00
2022-11-25T17:39:04.804Z,2.70
2022-11-25T17:41:39.495Z,2.80
2022-11-25T17:44:11.450Z,2.90
2022-11-25T17:46:41.193Z,2.80
2022-11-25T17:49:15.305Z,2.90
2022-11-25T17:51:43.870Z,2.70
2022-11-25T17:54:12.792Z,2.70
2022-11-25T17:56:44.652Z,2.60
2022-11-25T17:59:26.709Z,2.60
2022-11-25T18:01:56.550Z,2.50
2022-11-25T18:04:26.487Z,2.60
2022-11-25T18:06:55.172Z,2.70
2022-11-25T18:09:29.748Z,2.60
2022-11-25T18:12:00.853Z,2.40
2022-11-25T18:14:32.029Z,2.50
2022-11-25T18:17:04.969Z,2.60
2022-11-25T18:19:33.399Z,2.70
2022-11-25T18:22:06.977Z,2.60
2022-11-25T18:24:37.335Z,2.70
2022-11-25T18:27:07.048Z,2.80
2022-11-25T18:29:35.223Z,2.80
2022-11-25T18:32:04.848Z,2.60
2022-11-25T18:34:32.924Z,2.70
2022-11-25T18:37:02.564Z,2.70
2022-11-25T18:39:30.729Z,2.70
2022-11-25T18:41:59.995Z,2.80
2022-11-25T18:44:30.057Z,2.90
2022-11-25T18:46:58.307Z,2.90
2022-11-25T18:49:27.994Z,2.80
2022-11-25T18:51:56.009Z,2.80
2022-11-25T18:54:24.184Z,2.80
2022-11-25T18:56:52.952Z,2.80
2022-11-25T18:59:27.674Z,2.80
2022-11-25T19:01:56.341Z,2.70
2022-11-25T19:04:24.547Z,2.80
2022-11-25T19:06:54.131Z,2.80
2022-11-25T19:09:22.199Z,2.80
2022-11-25T19:11:53.884Z,2.50
2022-11-25T19:14:29.196Z,2.70
2022-11-25T19:17:00.330Z,2.80
2022-11-25T19:19:28.947Z,2.80
2022-11-25T19:22:01.451Z,2.70
2022-11-25T19:24:29.850Z,2.50
2022-11-25T19:26:58.433Z,2.40
2022-11-25T19:29:33.300Z,2.60
2022-11-25T19:32:05.325Z,2.60
2022-11-25T19:34:37.626Z,2.50
2022-11-25T19:37:07.549Z,2.50
2022-11-25T19:39:37.399Z,2.70
2022-11-25T19:42:05.640Z,2.70
2022-11-25T19:44:33.712Z,2.70
2022-11-25T19:47:15.353Z,2.80
2022-11-25T19:49:44.711Z,2.80
2022-11-25T19:52:19.438Z,2.80
2022-11-25T19:54:48.073Z,2.90
2022-11-25T19:57:17.783Z,2.90
2022-11-25T19:59:46.478Z,2.80
2022-11-25T20:02:17.002Z,2.90
2022-11-25T20:04:46.606Z,2.80
2022-11-25T20:07:16.728Z,3.00
2022-11-25T20:09:46.532Z,2.90
2022-11-25T20:12:21.041Z,2.80
2022-11-25T20:14:50.529Z,2.90
2022-11-25T20:17:25.866Z,2.90
2022-11-25T20:19:57.211Z,2.90
2022-11-25T20:22:31.411Z,2.90
2022-11-25T20:25:03.505Z,2.90
2022-11-25T20:27:31.656Z,2.90
2022-11-25T20:29:59.729Z,2.90
2022-11-25T20:32:29.813Z,3.20
2022-11-25T20:34:59.163Z,2.90
2022-11-25T20:37:40.413Z,3.10
2022-11-25T20:40:19.615Z,3.00
2022-11-25T20:42:48.582Z,3.00
2022-11-25T20:45:17.445Z,3.10
2022-11-25T20:47:45.997Z,3.10
2022-11-25T20:50:15.391Z,3.10
2022-11-25T20:52:44.211Z,3.30
2022-11-25T20:55:20.338Z,3.30
2022-11-25T20:57:49.916Z,3.40
2022-11-25T21:00:21.001Z,3.40
2022-11-25T21:02:49.661Z,3.40
2022-11-25T21:05:17.784Z,3.40
2022-11-25T21:07:46.720Z,3.40
2022-11-25T21:10:23.219Z,3.50
2022-11-25T21:12:51.885Z,3.40
2022-11-25T21:15:22.051Z,3.30
2022-11-25T21:17:50.281Z,3.30
2022-11-25T21:20:19.905Z,3.30
2022-11-25T21:22:51.284Z,3.30
2022-11-25T21:25:22.417Z,3.40
2022-11-25T21:27:52.217Z,3.30
2022-11-25T21:30:22.733Z,3.30
2022-11-25T21:32:53.269Z,3.20
2022-11-25T21:35:21.723Z,3.30
2022-11-25T21:37:49.857Z,3.30
2022-11-25T21:40:34.514Z,3.50
2022-11-25T21:43:03.747Z,3.40
2022-11-25T21:45:31.821Z,3.40
2022-11-25T21:47:59.947Z,3.40
2022-11-25T21:50:29.981Z,3.40
2022-11-25T21:52:58.238Z,3.40
2022-11-25T21:55:27.660Z,3.40
2022-11-25T21:57:55.889Z,3.40
2022-11-25T22:00:26.535Z,3.40
2022-11-25T22:02:55.155Z,3.40
2022-11-25T22:05:25.745Z,3.40
2022-11-25T22:07:56.072Z,3.70
2022-11-25T22:10:24.293Z,3.30
2022-11-25T22:12:53.803Z,3.30
2022-11-25T22:15:23.889Z,3.20
2022-11-25T22:17:56.912Z,3.30
2022-11-25T22:20:30.744Z,3.20
2022-11-25T22:22:58.913Z,3.10
2022-11-25T22:25:28.819Z,3.20
2022-11-25T22:27:58.442Z,3.20
2022-11-25T22:30:26.647Z,3.10
2022-11-25T22:33:01.600Z,3.00
2022-11-25T22:35:30.251Z,2.90
2022-11-25T22:38:00.799Z,3.10
2022-11-25T22:40:29.102Z,3.20
2022-11-25T22:43:00.858Z,3.30
2022-11-25T22:45:33.367Z,3.30
2022-11-25T22:48:04.583Z,3.30
2022-11-25T22:50:34.608Z,3.40
2022-11-25T22:53:03.347Z,3.40
2022-11-25T22:55:33.467Z,3.50
2022-11-25T22:58:04.572Z,3.40
2022-11-25T23:00:34.812Z,3.50
2022-11-25T23:03:06.157Z,3.40
2022-11-25T23:05:35.737Z,3.50
2022-11-25T23:08:10.600Z,3.30
2022-11-25T23:10:38.876Z,3.20
2022-11-25T23:13:08.461Z,3.40
2022-11-25T23:15:37.062Z,3.30
2022-11-25T23:18:10.728Z,3.40
2022-11-25T23:20:40.784Z,3.40
2022-11-25T23:23:14.884Z,3.40
2022-11-25T23:25:43.008Z,3.40
2022-11-25T23:28:12.542Z,3.40
2022-11-25T23:30:44.966Z,3.50
2022-11-25T23:33:26.839Z,3.50
2022-11-25T23:35:56.480Z,3.50
2022-11-25T23:38:27.341Z,3.30
2022-11-25T23:40:55.590Z,3.40
2022-11-25T23:43:27.736Z,3.40
2022-11-25T23:45:57.234Z,3.40
2022-11-25T23:48:30.967Z,3.40
2022-11-25T23:51:00.358Z,3.50
2022-11-25T23:53:32.160Z,3.40
2022-11-25T23:56:00.342Z,3.40
2022-11-25T23:58:29.743Z,3.50
